Pitkin, Louisiana
Current Conditions -  °F | °C
As of 2:54 PM on Saturday 25 Oct 2014 (Local Time) from KBKB Reporting Station
Clear Clear  
Wind Chill: 85°   Ceiling: Unl
Heat Index: 85°   Visibility: 10mi
Dew Point: 49°   Wind: 0mph
Humidity: 29%   Direction: NA
Pressure: 30.07"   Gusts: NA
Location:  30.94°N, 92.94°W
Report Text: KBKB 251954Z AUTO 00000KT 10SM CLR 29/09 A3007 RMK AO2 SLP211 T02940094
Loading
Personal Weather Stations






























Interactive Weather Map
Tropical Storm Tracking
New forecast layout! Learn more

10-Day Weather Forecast

Advertisements
Track Severe Weather on mobile